Time;durP1;ratioP1;P1;durP2;ratioP2;P2;SDS_P1;SDS_P2;PMS_P1;PMS_P2;Temp;Humidity;BMP_temperature;BMP_pressure;BME280_temperature;BME280_humidity;BME280_pressure;Samples;Min_cycle;Max_cycle;Signal;HPM_P1;HPM_P2
2021/05/13 00:01:34;;;;;;;1.68;1.46;;;;;;;19.22;50.25;99735.17;;;;-58
2021/05/13 00:04:34;;;;;;;2.08;1.39;;;;;;;19.21;50.22;99733.79;;;;-59
2021/05/13 00:07:34;;;;;;;2.42;1.50;;;;;;;19.21;50.26;99735.66;;;;-59
2021/05/13 00:10:34;;;;;;;1.69;1.39;;;;;;;19.20;50.25;99734.53;;;;-58
2021/05/13 00:13:34;;;;;;;1.84;1.48;;;;;;;19.18;50.21;99732.42;;;;-58
2021/05/13 00:16:35;;;;;;;1.99;1.41;;;;;;;19.18;50.21;99730.48;;;;-58
2021/05/13 00:19:34;;;;;;;1.85;1.47;;;;;;;19.18;50.22;99725.86;;;;-61
2021/05/13 00:22:34;;;;;;;1.66;1.33;;;;;;;19.17;50.19;99725.59;;;;-61
2021/05/13 00:25:35;;;;;;;2.73;1.46;;;;;;;19.16;50.33;99719.44;;;;-61
2021/05/13 00:28:34;;;;;;;1.77;1.31;;;;;;;19.15;50.24;99715.28;;;;-60
2021/05/13 00:31:34;;;;;;;1.43;1.30;;;;;;;19.14;50.24;99713.43;;;;-60
2021/05/13 00:34:34;;;;;;;3.01;1.50;;;;;;;19.14;50.26;99710.77;;;;-59
2021/05/13 00:37:34;;;;;;;1.95;1.40;;;;;;;19.13;50.29;99706.52;;;;-58
2021/05/13 00:40:34;;;;;;;2.55;1.47;;;;;;;19.12;50.32;99710.44;;;;-58
2021/05/13 00:43:34;;;;;;;1.43;1.33;;;;;;;19.12;50.24;99710.77;;;;-58
2021/05/13 00:46:34;;;;;;;1.42;1.32;;;;;;;19.11;50.22;99712.05;;;;-59
2021/05/13 00:49:34;;;;;;;3.61;1.33;;;;;;;19.11;50.22;99708.56;;;;-58
2021/05/13 00:52:34;;;;;;;1.44;1.34;;;;;;;19.10;50.22;99703.72;;;;-58
2021/05/13 00:55:34;;;;;;;2.18;1.41;;;;;;;19.10;50.21;99703.06;;;;-57
2021/05/13 00:58:36;;;;;;;1.52;1.42;;;;;;;19.09;50.27;99699.34;;;;-58
2021/05/13 01:01:49;;;;;;;1.45;1.35;;;;;;;19.08;50.25;99697.94;;;;-58
2021/05/13 01:04:34;;;;;;;2.43;1.41;;;;;;;19.07;50.24;99696.98;;;;-58
2021/05/13 01:07:34;;;;;;;1.50;1.40;;;;;;;19.07;50.19;99697.77;;;;-58
2021/05/13 01:10:35;;;;;;;1.57;1.37;;;;;;;19.06;50.23;99697.22;;;;-57
2021/05/13 01:13:36;;;;;;;1.78;1.47;;;;;;;19.06;50.21;99695.92;;;;-58
2021/05/13 01:16:45;;;;;;;1.46;1.35;;;;;;;19.05;50.27;99691.31;;;;-58
2021/05/13 01:19:34;;;;;;;1.62;1.33;;;;;;;19.05;50.25;99693.19;;;;-58
2021/05/13 01:22:34;;;;;;;1.98;1.37;;;;;;;19.04;50.24;99697.14;;;;-57
2021/05/13 01:25:34;;;;;;;1.50;1.40;;;;;;;19.04;50.18;99698.30;;;;-57
2021/05/13 01:28:34;;;;;;;1.39;1.29;;;;;;;19.03;50.35;99697.41;;;;-58
2021/05/13 01:31:34;;;;;;;1.44;1.34;;;;;;;19.03;50.24;99699.61;;;;-58
2021/05/13 01:34:34;;;;;;;1.41;1.31;;;;;;;19.02;50.24;99698.86;;;;-58
2021/05/13 01:37:34;;;;;;;1.51;1.40;;;;;;;19.01;50.27;99700.26;;;;-58
2021/05/13 01:40:34;;;;;;;1.47;1.37;;;;;;;19.01;50.25;99698.39;;;;-57
2021/05/13 01:43:34;;;;;;;1.41;1.31;;;;;;;19.01;50.21;99695.39;;;;-58
2021/05/13 01:46:34;;;;;;;1.50;1.40;;;;;;;19.00;50.21;99692.62;;;;-59
2021/05/13 01:49:34;;;;;;;1.49;1.39;;;;;;;18.99;50.28;99690.38;;;;-57
2021/05/13 01:52:34;;;;;;;1.52;1.41;;;;;;;18.98;50.20;99689.29;;;;-60
2021/05/13 01:55:34;;;;;;;1.48;1.38;;;;;;;18.97;50.22;99688.98;;;;-60
2021/05/13 01:58:34;;;;;;;1.65;1.50;;;;;;;18.98;50.23;99693.77;;;;-60
2021/05/13 02:01:34;;;;;;;1.69;1.40;;;;;;;18.97;50.19;99691.10;;;;-60
2021/05/13 02:04:34;;;;;;;1.51;1.33;;;;;;;18.96;50.24;99688.48;;;;-59
2021/05/13 02:07:34;;;;;;;2.17;1.29;;;;;;;18.96;50.19;99687.77;;;;-61
2021/05/13 02:10:34;;;;;;;1.50;1.40;;;;;;;18.96;50.22;99692.95;;;;-59
2021/05/13 02:13:34;;;;;;;1.40;1.30;;;;;;;18.95;50.19;99693.70;;;;-60
2021/05/13 02:16:34;;;;;;;1.43;1.33;;;;;;;18.95;50.18;99690.39;;;;-61
2021/05/13 02:19:34;;;;;;;1.40;1.30;;;;;;;18.94;50.19;99688.81;;;;-60
2021/05/13 02:22:34;;;;;;;1.59;1.49;;;;;;;18.94;50.20;99684.44;;;;-60
2021/05/13 02:25:36;;;;;;;1.55;1.30;;;;;;;18.93;50.22;99685.02;;;;-60
2021/05/13 02:28:34;;;;;;;1.46;1.36;;;;;;;18.93;50.17;99684.29;;;;-60
2021/05/13 02:31:34;;;;;;;1.87;1.40;;;;;;;18.93;50.17;99681.13;;;;-60
2021/05/13 02:34:34;;;;;;;1.45;1.35;;;;;;;18.92;50.13;99677.39;;;;-60
2021/05/13 02:37:34;;;;;;;1.58;1.42;;;;;;;18.92;50.16;99680.31;;;;-58
2021/05/13 02:40:34;;;;;;;1.45;1.35;;;;;;;18.92;50.19;99682.50;;;;-58
2021/05/13 02:43:34;;;;;;;1.41;1.31;;;;;;;18.91;50.27;99678.38;;;;-59
2021/05/13 02:46:34;;;;;;;1.49;1.39;;;;;;;18.90;50.14;99674.55;;;;-61
2021/05/13 02:49:34;;;;;;;1.33;1.23;;;;;;;18.89;50.17;99666.61;;;;-60
2021/05/13 02:52:34;;;;;;;1.40;1.30;;;;;;;18.89;50.17;99668.88;;;;-60
2021/05/13 02:55:34;;;;;;;1.40;1.30;;;;;;;18.89;50.27;99670.67;;;;-60
2021/05/13 02:58:34;;;;;;;1.65;1.27;;;;;;;18.88;50.16;99670.11;;;;-60
2021/05/13 03:01:34;;;;;;;1.45;1.35;;;;;;;18.89;50.13;99671.65;;;;-59
2021/05/13 03:04:34;;;;;;;1.39;1.29;;;;;;;18.88;50.19;99669.30;;;;-59
2021/05/13 03:07:41;;;;;;;1.27;1.20;;;;;;;18.87;50.14;99659.55;;;;-60
2021/05/13 03:10:42;;;;;;;1.48;1.23;;;;;;;18.87;50.23;99652.73;;;;-60
2021/05/13 03:13:35;;;;;;;2.03;1.30;;;;;;;18.86;50.16;99652.16;;;;-58
2021/05/13 03:16:34;;;;;;;1.40;1.30;;;;;;;18.86;50.13;99655.40;;;;-62
2021/05/13 03:19:40;;;;;;;1.50;1.40;;;;;;;18.86;50.19;99653.45;;;;-61
2021/05/13 03:22:34;;;;;;;1.79;1.40;;;;;;;18.85;50.18;99654.12;;;;-59
2021/05/13 03:25:36;;;;;;;1.25;1.21;;;;;;;18.85;50.16;99651.05;;;;-58
2021/05/13 03:28:34;;;;;;;1.40;1.30;;;;;;;18.84;50.10;99649.89;;;;-59
2021/05/13 03:31:34;;;;;;;1.51;1.41;;;;;;;18.84;50.23;99649.99;;;;-59
2021/05/13 03:34:34;;;;;;;1.49;1.39;;;;;;;18.84;50.17;99646.81;;;;-59
2021/05/13 03:37:34;;;;;;;1.55;1.45;;;;;;;18.84;50.15;99650.30;;;;-59
2021/05/13 03:40:34;;;;;;;1.83;1.40;;;;;;;18.83;50.18;99649.09;;;;-58
2021/05/13 03:43:34;;;;;;;1.40;1.30;;;;;;;18.83;50.22;99655.59;;;;-59
2021/05/13 03:46:34;;;;;;;1.50;1.34;;;;;;;18.83;50.12;99655.83;;;;-59
2021/05/13 03:49:34;;;;;;;1.43;1.33;;;;;;;18.82;50.13;99649.42;;;;-57
2021/05/13 03:52:34;;;;;;;1.33;1.23;;;;;;;18.82;50.17;99649.98;;;;-57
2021/05/13 03:55:34;;;;;;;1.44;1.34;;;;;;;18.81;50.18;99652.59;;;;-58
2021/05/13 03:58:38;;;;;;;1.50;1.40;;;;;;;18.81;50.12;99654.13;;;;-59
2021/05/13 04:01:45;;;;;;;1.36;1.26;;;;;;;18.80;50.12;99650.48;;;;-57
2021/05/13 04:04:34;;;;;;;1.40;1.30;;;;;;;18.80;50.14;99648.31;;;;-57
2021/05/13 04:07:35;;;;;;;1.40;1.20;;;;;;;18.80;50.10;99649.02;;;;-57
2021/05/13 04:10:34;;;;;;;1.40;1.30;;;;;;;18.80;50.13;99646.50;;;;-59
2021/05/13 04:13:35;;;;;;;1.40;1.30;;;;;;;18.78;50.10;99644.90;;;;-57
2021/05/13 04:16:36;;;;;;;1.31;1.21;;;;;;;18.78;50.33;99636.59;;;;-58
2021/05/13 04:19:34;;;;;;;1.40;1.30;;;;;;;18.78;50.10;99637.58;;;;-57
2021/05/13 04:22:34;;;;;;;1.58;1.32;;;;;;;18.77;50.09;99631.39;;;;-60
2021/05/13 04:25:34;;;;;;;1.40;1.30;;;;;;;18.77;50.08;99631.14;;;;-58
2021/05/13 04:28:34;;;;;;;1.39;1.29;;;;;;;18.76;50.10;99630.43;;;;-58
2021/05/13 04:31:34;;;;;;;1.40;1.30;;;;;;;18.76;50.07;99629.05;;;;-58
2021/05/13 04:34:34;;;;;;;1.35;1.25;;;;;;;18.76;50.07;99633.52;;;;-57
2021/05/13 04:37:34;;;;;;;1.27;1.18;;;;;;;18.76;50.11;99638.95;;;;-58
2021/05/13 04:40:34;;;;;;;1.40;1.30;;;;;;;18.76;50.09;99635.04;;;;-58
2021/05/13 04:43:34;;;;;;;1.36;1.26;;;;;;;18.75;50.05;99632.12;;;;-59
2021/05/13 04:46:35;;;;;;;1.44;1.30;;;;;;;18.76;50.03;99631.95;;;;-59
2021/05/13 04:49:34;;;;;;;1.32;1.22;;;;;;;18.74;50.07;99631.98;;;;-58
2021/05/13 04:52:34;;;;;;;1.35;1.25;;;;;;;18.74;50.09;99636.77;;;;-58
2021/05/13 04:55:34;;;;;;;1.35;1.25;;;;;;;18.73;50.18;99633.84;;;;-59
2021/05/13 04:58:34;;;;;;;1.41;1.31;;;;;;;18.73;50.12;99631.56;;;;-58
2021/05/13 05:01:34;;;;;;;1.32;1.22;;;;;;;18.73;50.10;99627.84;;;;-60
2021/05/13 05:04:34;;;;;;;1.37;1.27;;;;;;;18.73;50.20;99630.11;;;;-60
2021/05/13 05:07:34;;;;;;;1.48;1.38;;;;;;;18.72;50.06;99631.34;;;;-60
2021/05/13 05:10:34;;;;;;;1.39;1.28;;;;;;;18.73;50.06;99628.81;;;;-60
2021/05/13 05:13:34;;;;;;;1.41;1.31;;;;;;;18.73;50.06;99628.09;;;;-60
2021/05/13 05:16:34;;;;;;;1.35;1.25;;;;;;;18.73;50.00;99632.31;;;;-59
2021/05/13 05:19:34;;;;;;;1.40;1.30;;;;;;;18.73;49.98;99632.95;;;;-59
2021/05/13 05:22:34;;;;;;;1.40;1.30;;;;;;;18.73;49.95;99628.65;;;;-61
2021/05/13 05:25:34;;;;;;;1.40;1.30;;;;;;;18.74;49.89;99626.87;;;;-59
2021/05/13 05:28:34;;;;;;;1.31;1.21;;;;;;;18.75;49.87;99624.02;;;;-59
2021/05/13 05:31:34;;;;;;;1.45;1.35;;;;;;;18.76;49.87;99625.08;;;;-58
2021/05/13 05:34:34;;;;;;;1.28;1.19;;;;;;;18.77;49.84;99620.84;;;;-59
2021/05/13 05:37:34;;;;;;;1.32;1.22;;;;;;;18.80;49.82;99626.21;;;;-58
2021/05/13 05:40:34;;;;;;;1.30;1.20;;;;;;;18.81;49.88;99628.48;;;;-59
2021/05/13 05:43:34;;;;;;;1.30;1.20;;;;;;;18.83;49.94;99636.27;;;;-57
2021/05/13 05:46:34;;;;;;;1.20;1.20;;;;;;;18.84;50.05;99637.22;;;;-57
2021/05/13 05:49:34;;;;;;;1.13;1.11;;;;;;;18.86;50.14;99633.16;;;;-57
2021/05/13 05:52:34;;;;;;;1.26;1.16;;;;;;;18.89;49.90;99627.33;;;;-57
2021/05/13 05:55:34;;;;;;;1.38;1.28;;;;;;;18.90;49.96;99625.03;;;;-56
2021/05/13 05:58:34;;;;;;;1.38;1.23;;;;;;;18.92;50.01;99621.36;;;;-58
2021/05/13 06:01:37;;;;;;;1.29;1.20;;;;;;;18.93;49.97;99616.74;;;;-57
2021/05/13 06:04:34;;;;;;;1.23;1.13;;;;;;;18.96;50.09;99617.30;;;;-57
2021/05/13 06:07:34;;;;;;;1.10;1.10;;;;;;;18.97;49.92;99616.98;;;;-58
2021/05/13 06:10:34;;;;;;;1.63;1.10;;;;;;;18.97;49.91;99611.84;;;;-58
2021/05/13 06:13:34;;;;;;;1.17;1.13;;;;;;;18.99;49.95;99611.20;;;;-57
2021/05/13 06:16:34;;;;;;;1.29;1.23;;;;;;;19.01;49.95;99617.34;;;;-60
2021/05/13 06:19:34;;;;;;;1.28;1.20;;;;;;;19.01;49.94;99616.46;;;;-60
2021/05/13 06:22:34;;;;;;;1.17;1.10;;;;;;;19.02;49.96;99613.28;;;;-60
2021/05/13 06:25:34;;;;;;;1.19;1.15;;;;;;;19.03;49.90;99610.52;;;;-59
2021/05/13 06:28:34;;;;;;;1.29;1.20;;;;;;;19.03;49.86;99606.80;;;;-58
2021/05/13 06:31:34;;;;;;;3.41;1.20;;;;;;;19.04;49.80;99606.30;;;;-60
2021/05/13 06:34:34;;;;;;;1.27;1.19;;;;;;;19.04;49.82;99603.92;;;;-60
2021/05/13 06:37:34;;;;;;;1.23;1.19;;;;;;;19.05;49.81;99604.33;;;;-58
2021/05/13 06:40:34;;;;;;;4.24;1.71;;;;;;;19.02;50.26;99599.55;;;;-50
2021/05/13 06:43:34;;;;;;;4.11;2.19;;;;;;;18.91;50.79;99602.39;;;;-53
2021/05/13 06:46:34;;;;;;;2.82;2.21;;;;;;;18.88;51.28;99601.81;;;;-52
2021/05/13 06:49:34;;;;;;;3.39;2.28;;;;;;;18.86;51.38;99607.52;;;;-55
2021/05/13 06:52:34;;;;;;;2.93;2.39;;;;;;;18.78;51.88;99603.64;;;;-55
2021/05/13 06:55:34;;;;;;;3.79;2.14;;;;;;;18.74;51.90;99603.17;;;;-54
2021/05/13 06:58:34;;;;;;;2.89;2.01;;;;;;;18.77;51.62;99598.77;;;;-54
2021/05/13 07:01:34;;;;;;;2.93;2.05;;;;;;;18.80;51.42;99597.66;;;;-57
2021/05/13 07:04:34;;;;;;;2.15;1.95;;;;;;;18.83;51.21;99596.82;;;;-58
2021/05/13 07:07:38;;;;;;;2.40;1.74;;;;;;;18.86;51.09;99592.09;;;;-58
2021/05/13 07:10:35;;;;;;;2.49;1.74;;;;;;;18.88;50.96;99592.56;;;;-58
2021/05/13 07:13:36;;;;;;;2.14;1.75;;;;;;;18.90;50.88;99591.50;;;;-54
2021/05/13 07:16:34;;;;;;;2.19;1.70;;;;;;;18.92;50.75;99586.14;;;;-55
2021/05/13 07:19:34;;;;;;;2.69;1.69;;;;;;;18.93;50.71;99583.70;;;;-57
2021/05/13 07:22:34;;;;;;;1.77;1.65;;;;;;;18.94;50.62;99584.75;;;;-53
2021/05/13 07:25:34;;;;;;;2.40;1.71;;;;;;;18.95;50.56;99583.13;;;;-54
2021/05/13 07:28:34;;;;;;;2.15;1.67;;;;;;;18.95;50.53;99584.58;;;;-51
2021/05/13 07:31:34;;;;;;;1.71;1.61;;;;;;;18.97;50.48;99588.64;;;;-58
2021/05/13 07:34:34;;;;;;;1.87;1.61;;;;;;;18.97;50.48;99595.22;;;;-60
2021/05/13 07:37:34;;;;;;;1.92;1.53;;;;;;;18.97;50.49;99596.27;;;;-58
2021/05/13 07:40:34;;;;;;;2.25;1.70;;;;;;;18.98;50.43;99596.73;;;;-61
2021/05/13 07:43:34;;;;;;;2.02;1.68;;;;;;;19.00;50.68;99594.37;;;;-52
2021/05/13 07:46:37;;;;;;;1.63;1.52;;;;;;;19.02;50.82;99591.52;;;;-58
2021/05/13 07:49:34;;;;;;;2.85;1.63;;;;;;;19.04;50.82;99588.44;;;;-49
2021/05/13 07:52:34;;;;;;;2.30;1.65;;;;;;;19.05;51.05;99586.00;;;;-52
2021/05/13 07:55:34;;;;;;;2.91;1.59;;;;;;;19.08;51.02;99589.38;;;;-52
2021/05/13 07:58:34;;;;;;;1.69;1.59;;;;;;;19.09;50.90;99589.92;;;;-54
2021/05/13 08:01:34;;;;;;;2.28;1.63;;;;;;;19.08;50.90;99588.08;;;;-56
2021/05/13 08:04:34;;;;;;;2.81;1.58;;;;;;;19.07;50.90;99588.58;;;;-60
2021/05/13 08:07:34;;;;;;;2.47;1.46;;;;;;;19.07;50.82;99586.06;;;;-53
2021/05/13 08:10:34;;;;;;;2.01;1.68;;;;;;;19.07;50.75;99583.63;;;;-55
2021/05/13 08:13:34;;;;;;;2.71;1.52;;;;;;;19.06;50.64;99584.27;;;;-53
2021/05/13 08:16:34;;;;;;;1.95;1.49;;;;;;;19.06;50.64;99586.70;;;;-62
2021/05/13 08:19:34;;;;;;;2.21;1.53;;;;;;;19.08;50.76;99574.99;;;;-58
2021/05/13 08:22:35;;;;;;;1.97;1.64;;;;;;;19.08;50.82;99569.64;;;;-57
2021/05/13 08:25:34;;;;;;;1.59;1.49;;;;;;;19.10;50.92;99561.52;;;;-62
2021/05/13 08:28:34;;;;;;;4.50;1.45;;;;;;;19.11;50.97;99560.36;;;;-61
2021/05/13 08:31:34;;;;;;;7.39;1.79;;;;;;;19.16;51.64;99563.50;;;;-51
2021/05/13 08:34:34;;;;;;;3.58;1.54;;;;;;;19.15;51.37;99556.86;;;;-52
2021/05/13 08:37:34;;;;;;;3.09;1.66;;;;;;;19.15;51.31;99554.24;;;;-54
2021/05/13 08:40:34;;;;;;;4.28;1.50;;;;;;;19.16;51.31;99556.19;;;;-57
2021/05/13 08:43:34;;;;;;;3.09;1.59;;;;;;;19.17;51.36;99557.72;;;;-59
2021/05/13 08:46:34;;;;;;;3.06;1.59;;;;;;;19.17;51.34;99554.73;;;;-53
2021/05/13 08:49:34;;;;;;;2.75;1.37;;;;;;;19.18;51.37;99547.98;;;;-51
2021/05/13 08:52:34;;;;;;;2.79;1.43;;;;;;;19.19;51.47;99547.55;;;;-50
2021/05/13 08:55:35;;;;;;;2.35;1.55;;;;;;;19.20;51.31;99551.38;;;;-48
2021/05/13 08:58:34;;;;;;;3.39;1.49;;;;;;;19.22;51.50;99548.05;;;;-49
2021/05/13 09:01:35;;;;;;;2.91;1.52;;;;;;;19.23;51.36;99545.27;;;;-52
2021/05/13 09:04:34;;;;;;;5.20;1.59;;;;;;;19.23;51.44;99542.98;;;;-59
2021/05/13 09:07:34;;;;;;;4.03;1.52;;;;;;;19.23;51.44;99537.94;;;;-59
2021/05/13 09:10:34;;;;;;;1.99;1.40;;;;;;;19.24;51.36;99537.78;;;;-57
2021/05/13 09:13:34;;;;;;;5.81;1.51;;;;;;;19.25;51.40;99532.00;;;;-54
2021/05/13 09:16:35;;;;;;;4.62;1.55;;;;;;;19.25;51.41;99527.85;;;;-60
2021/05/13 09:19:34;;;;;;;1.89;1.49;;;;;;;19.25;51.32;99522.81;;;;-55
2021/05/13 09:22:34;;;;;;;2.02;1.53;;;;;;;19.26;51.32;99520.53;;;;-52
2021/05/13 09:25:34;;;;;;;2.13;1.50;;;;;;;19.26;51.34;99519.00;;;;-56
2021/05/13 09:28:34;;;;;;;1.50;1.40;;;;;;;19.27;51.31;99510.94;;;;-53
2021/05/13 09:31:35;;;;;;;2.66;1.40;;;;;;;19.29;51.37;99513.37;;;;-56
2021/05/13 09:34:34;;;;;;;1.67;1.40;;;;;;;19.28;51.46;99507.61;;;;-64
2021/05/13 09:37:34;;;;;;;2.95;1.47;;;;;;;19.31;51.42;99509.77;;;;-51
2021/05/13 09:40:34;;;;;;;2.13;1.51;;;;;;;19.30;51.43;99504.27;;;;-58
2021/05/13 09:43:34;;;;;;;2.60;1.53;;;;;;;19.32;51.50;99503.27;;;;-56
2021/05/13 09:46:34;;;;;;;1.86;1.38;;;;;;;19.33;51.52;99495.47;;;;-50
2021/05/13 09:49:34;;;;;;;1.82;1.55;;;;;;;19.33;51.46;99498.30;;;;-52
2021/05/13 09:52:34;;;;;;;2.03;1.43;;;;;;;19.34;51.50;99494.63;;;;-57
2021/05/13 09:55:34;;;;;;;1.91;1.39;;;;;;;19.34;51.56;99492.03;;;;-54
2021/05/13 09:58:34;;;;;;;4.93;1.53;;;;;;;19.35;51.58;99487.16;;;;-48
2021/05/13 10:01:34;;;;;;;4.27;1.41;;;;;;;19.35;51.73;99484.41;;;;-54
2021/05/13 10:04:34;;;;;;;2.81;1.40;;;;;;;19.36;51.52;99486.74;;;;-53
2021/05/13 10:07:34;;;;;;;1.85;1.38;;;;;;;19.37;51.49;99481.23;;;;-63
2021/05/13 10:10:34;;;;;;;3.79;1.52;;;;;;;19.37;51.60;99474.40;;;;-58
2021/05/13 10:13:34;;;;;;;2.15;1.39;;;;;;;19.37;51.53;99474.63;;;;-47
2021/05/13 10:16:34;;;;;;;3.36;1.35;;;;;;;19.38;51.58;99468.13;;;;-53
2021/05/13 10:19:34;;;;;;;2.71;1.38;;;;;;;19.38;51.51;99468.45;;;;-54
2021/05/13 10:22:34;;;;;;;2.72;1.41;;;;;;;19.40;51.25;99466.23;;;;-51
2021/05/13 10:25:36;;;;;;;5.05;1.65;;;;;;;19.38;51.31;99462.94;;;;-50
2021/05/13 10:28:34;;;;;;;1.69;1.31;;;;;;;19.36;51.18;99457.75;;;;-52
2021/05/13 10:31:34;;;;;;;2.47;1.44;;;;;;;19.35;51.20;99450.61;;;;-52
2021/05/13 10:34:34;;;;;;;2.10;1.30;;;;;;;19.34;51.10;99451.84;;;;-52
2021/05/13 10:37:37;;;;;;;1.60;1.40;;;;;;;19.34;51.10;99450.77;;;;-50
2021/05/13 10:40:44;;;;;;;1.50;1.40;;;;;;;19.33;51.04;99451.69;;;;-52
2021/05/13 10:43:34;;;;;;;1.31;1.21;;;;;;;19.32;51.06;99454.84;;;;-52
2021/05/13 10:46:34;;;;;;;2.19;1.33;;;;;;;19.31;50.89;99455.84;;;;-52
2021/05/13 10:49:34;;;;;;;2.58;1.44;;;;;;;19.29;50.90;99456.25;;;;-50
2021/05/13 10:52:34;;;;;;;2.43;1.31;;;;;;;19.29;50.79;99457.41;;;;-53
2021/05/13 10:55:34;;;;;;;1.44;1.34;;;;;;;19.28;50.78;99456.51;;;;-52
2021/05/13 10:58:34;;;;;;;1.63;1.39;;;;;;;19.27;50.69;99459.19;;;;-52
2021/05/13 11:01:34;;;;;;;2.47;1.39;;;;;;;19.27;50.73;99454.09;;;;-52
2021/05/13 11:04:34;;;;;;;1.57;1.26;;;;;;;19.26;50.71;99455.64;;;;-52
2021/05/13 11:07:34;;;;;;;1.53;1.29;;;;;;;19.26;50.71;99452.64;;;;-52
2021/05/13 11:10:34;;;;;;;1.37;1.27;;;;;;;19.26;50.62;99445.97;;;;-52
2021/05/13 11:13:34;;;;;;;1.55;1.30;;;;;;;19.25;50.61;99445.81;;;;-52
2021/05/13 11:16:34;;;;;;;1.90;1.36;;;;;;;19.25;50.57;99445.18;;;;-49
2021/05/13 11:19:34;;;;;;;3.34;1.30;;;;;;;19.24;50.56;99444.86;;;;-50
2021/05/13 11:22:34;;;;;;;1.35;1.24;;;;;;;19.24;50.51;99440.80;;;;-51
2021/05/13 11:25:34;;;;;;;1.79;1.30;;;;;;;19.24;50.55;99440.01;;;;-50
2021/05/13 11:28:34;;;;;;;1.47;1.29;;;;;;;19.23;50.48;99431.61;;;;-49
2021/05/13 11:31:34;;;;;;;1.55;1.40;;;;;;;19.23;50.47;99427.73;;;;-51
2021/05/13 11:34:34;;;;;;;1.37;1.27;;;;;;;19.23;50.43;99431.70;;;;-50
2021/05/13 11:37:34;;;;;;;1.43;1.32;;;;;;;19.22;50.44;99433.42;;;;-52
2021/05/13 11:40:34;;;;;;;1.30;1.20;;;;;;;19.22;50.42;99434.89;;;;-50
2021/05/13 11:43:34;;;;;;;1.47;1.30;;;;;;;19.22;50.45;99436.77;;;;-53
2021/05/13 11:46:36;;;;;;;1.45;1.35;;;;;;;19.22;50.37;99442.86;;;;-52
2021/05/13 11:49:34;;;;;;;1.41;1.30;;;;;;;19.22;50.37;99440.73;;;;-50
2021/05/13 11:52:34;;;;;;;2.06;1.29;;;;;;;19.21;50.34;99440.24;;;;-51
2021/05/13 11:55:34;;;;;;;1.44;1.34;;;;;;;19.22;50.37;99441.96;;;;-50
2021/05/13 11:58:34;;;;;;;1.31;1.20;;;;;;;19.21;50.36;99444.48;;;;-50
2021/05/13 12:01:34;;;;;;;1.53;1.40;;;;;;;19.22;50.28;99450.89;;;;-52
2021/05/13 12:04:34;;;;;;;1.32;1.20;;;;;;;19.21;50.29;99452.03;;;;-49
2021/05/13 12:07:34;;;;;;;1.30;1.20;;;;;;;19.21;50.26;99444.89;;;;-50
2021/05/13 12:10:34;;;;;;;1.44;1.29;;;;;;;19.20;50.27;99453.75;;;;-50
2021/05/13 12:13:34;;;;;;;1.39;1.26;;;;;;;19.21;50.25;99449.27;;;;-50
2021/05/13 12:16:34;;;;;;;2.21;1.40;;;;;;;19.21;50.36;99451.13;;;;-53
2021/05/13 12:19:34;;;;;;;1.83;1.23;;;;;;;19.22;50.29;99450.57;;;;-55
2021/05/13 12:22:34;;;;;;;1.95;1.30;;;;;;;19.23;50.43;99448.45;;;;-53
2021/05/13 12:25:34;;;;;;;1.37;1.27;;;;;;;19.23;50.44;99447.78;;;;-49
2021/05/13 12:28:34;;;;;;;1.28;1.19;;;;;;;19.24;50.62;99448.84;;;;-54
2021/05/13 12:31:34;;;;;;;2.35;1.38;;;;;;;19.27;50.72;99448.73;;;;-49
2021/05/13 12:34:34;;;;;;;2.37;1.30;;;;;;;19.29;50.69;99454.23;;;;-48
2021/05/13 12:37:34;;;;;;;1.35;1.23;;;;;;;19.29;50.78;99453.75;;;;-51
2021/05/13 12:40:34;;;;;;;1.30;1.20;;;;;;;19.29;50.83;99461.54;;;;-59
2021/05/13 12:43:34;;;;;;;3.31;1.39;;;;;;;19.30;50.82;99460.17;;;;-61
2021/05/13 12:46:34;;;;;;;9.21;1.58;;;;;;;19.30;50.77;99457.25;;;;-53
2021/05/13 12:49:34;;;;;;;1.75;1.30;;;;;;;19.32;50.85;99461.59;;;;-51
2021/05/13 12:52:34;;;;;;;2.03;1.21;;;;;;;19.32;50.81;99460.86;;;;-56
2021/05/13 12:55:34;;;;;;;1.68;1.29;;;;;;;19.31;50.77;99467.78;;;;-51
2021/05/13 12:58:34;;;;;;;1.45;1.23;;;;;;;19.31;50.77;99465.99;;;;-55
2021/05/13 13:01:34;;;;;;;4.25;1.31;;;;;;;19.31;50.65;99463.57;;;;-54
2021/05/13 13:04:34;;;;;;;1.81;1.29;;;;;;;19.31;50.76;99462.42;;;;-60
2021/05/13 13:07:34;;;;;;;2.30;1.30;;;;;;;19.33;50.74;99463.30;;;;-57
2021/05/13 13:10:34;;;;;;;2.15;1.30;;;;;;;19.32;50.73;99460.64;;;;-57
2021/05/13 13:13:36;;;;;;;1.75;1.30;;;;;;;19.31;50.74;99461.69;;;;-57
2021/05/13 13:16:34;;;;;;;1.50;1.30;;;;;;;19.31;50.70;99457.56;;;;-50
2021/05/13 13:19:34;;;;;;;1.58;1.27;;;;;;;19.29;50.59;99457.31;;;;-54
2021/05/13 13:22:34;;;;;;;2.14;1.35;;;;;;;19.28;50.58;99458.08;;;;-51
2021/05/13 13:25:34;;;;;;;3.77;1.24;;;;;;;19.28;50.54;99454.39;;;;-50
2021/05/13 13:28:34;;;;;;;1.59;1.30;;;;;;;19.27;50.49;99453.76;;;;-57
2021/05/13 13:31:36;;;;;;;2.91;1.39;;;;;;;19.26;50.52;99457.03;;;;-58
2021/05/13 13:34:39;;;;;;;1.43;1.20;;;;;;;19.26;50.47;99456.30;;;;-57
2021/05/13 13:37:34;;;;;;;1.76;1.11;;;;;;;19.25;50.46;99460.67;;;;-58
2021/05/13 13:40:34;;;;;;;1.54;1.22;;;;;;;19.25;50.40;99470.51;;;;-57
2021/05/13 13:43:34;;;;;;;1.87;1.18;;;;;;;19.25;50.39;99489.44;;;;-50
2021/05/13 13:46:34;;;;;;;1.53;1.22;;;;;;;19.24;50.36;99482.80;;;;-54
2021/05/13 13:49:34;;;;;;;1.96;1.25;;;;;;;19.23;50.37;99494.41;;;;-57
2021/05/13 13:52:34;;;;;;;1.42;1.21;;;;;;;19.24;50.33;99492.96;;;;-57
2021/05/13 13:55:34;;;;;;;1.31;1.21;;;;;;;19.23;50.28;99490.99;;;;-54
2021/05/13 13:58:34;;;;;;;1.47;1.27;;;;;;;19.23;50.35;99492.63;;;;-51
2021/05/13 14:01:34;;;;;;;1.21;1.11;;;;;;;19.22;50.29;99495.41;;;;-54
2021/05/13 14:04:34;;;;;;;1.30;1.20;;;;;;;19.22;50.27;99492.48;;;;-57
2021/05/13 14:07:34;;;;;;;1.57;1.20;;;;;;;19.23;50.25;99494.41;;;;-58
2021/05/13 14:10:34;;;;;;;1.43;1.10;;;;;;;19.22;50.27;99495.24;;;;-58
2021/05/13 14:13:34;;;;;;;1.20;1.12;;;;;;;19.22;50.20;99493.14;;;;-57
2021/05/13 14:16:34;;;;;;;2.60;1.22;;;;;;;19.22;50.35;99498.73;;;;-55
2021/05/13 14:19:34;;;;;;;1.16;1.06;;;;;;;19.23;50.37;99501.16;;;;-55
2021/05/13 14:22:34;;;;;;;1.45;1.31;;;;;;;19.23;50.44;99501.96;;;;-56
2021/05/13 14:25:34;;;;;;;1.23;1.11;;;;;;;19.25;50.52;99508.38;;;;-57
2021/05/13 14:28:34;;;;;;;1.30;1.20;;;;;;;19.25;50.49;99513.48;;;;-54
2021/05/13 14:31:34;;;;;;;1.17;1.10;;;;;;;19.25;50.51;99514.30;;;;-55
2021/05/13 14:34:34;;;;;;;3.19;1.35;;;;;;;19.25;50.55;99512.76;;;;-60
2021/05/13 14:37:34;;;;;;;2.09;1.21;;;;;;;19.24;50.49;99510.74;;;;-54
2021/05/13 14:40:34;;;;;;;1.60;1.25;;;;;;;19.24;50.49;99515.54;;;;-53
2021/05/13 14:43:34;;;;;;;2.14;1.22;;;;;;;19.22;50.43;99511.08;;;;-53
2021/05/13 14:46:34;;;;;;;3.38;1.30;;;;;;;19.22;50.44;99514.81;;;;-60
2021/05/13 14:49:36;;;;;;;1.07;1.01;;;;;;;19.23;50.38;99511.15;;;;-58
2021/05/13 14:52:34;;;;;;;1.15;1.10;;;;;;;19.22;50.40;99508.97;;;;-55
2021/05/13 14:55:34;;;;;;;2.29;1.18;;;;;;;19.22;50.48;99510.76;;;;-59
2021/05/13 14:58:35;;;;;;;1.29;1.19;;;;;;;19.23;50.51;99507.73;;;;-57
2021/05/13 15:01:34;;;;;;;4.91;1.22;;;;;;;19.24;50.59;99512.13;;;;-52
2021/05/13 15:04:34;;;;;;;1.17;1.05;;;;;;;19.24;50.67;99511.38;;;;-55
2021/05/13 15:07:34;;;;;;;1.35;1.11;;;;;;;19.25;50.76;99504.63;;;;-57
2021/05/13 15:10:34;;;;;;;1.79;1.10;;;;;;;19.26;50.84;99505.44;;;;-55
2021/05/13 15:13:34;;;;;;;2.41;1.20;;;;;;;19.26;50.86;99503.41;;;;-59
2021/05/13 15:16:34;;;;;;;1.83;1.17;;;;;;;19.27;51.00;99503.38;;;;-52
2021/05/13 15:19:34;;;;;;;1.54;1.21;;;;;;;19.28;50.92;99500.96;;;;-54
2021/05/13 15:22:34;;;;;;;1.29;1.13;;;;;;;19.29;51.02;99498.99;;;;-54
2021/05/13 15:25:34;;;;;;;1.00;1.00;;;;;;;19.29;51.07;99495.00;;;;-53
2021/05/13 15:28:34;;;;;;;1.63;1.11;;;;;;;19.31;51.07;99494.27;;;;-52
2021/05/13 15:31:34;;;;;;;1.75;1.20;;;;;;;19.32;51.07;99492.54;;;;-51
2021/05/13 15:34:34;;;;;;;2.22;1.01;;;;;;;19.32;51.10;99489.56;;;;-53
2021/05/13 15:37:34;;;;;;;1.20;1.10;;;;;;;19.33;51.18;99493.03;;;;-57
2021/05/13 15:40:35;;;;;;;1.49;1.20;;;;;;;19.33;51.17;99493.84;;;;-56
2021/05/13 15:43:34;;;;;;;1.23;1.08;;;;;;;19.34;51.24;99492.95;;;;-54
2021/05/13 15:46:34;;;;;;;2.09;1.17;;;;;;;19.35;51.19;99493.50;;;;-52
2021/05/13 15:49:34;;;;;;;1.07;1.03;;;;;;;19.35;51.22;99491.88;;;;-59
2021/05/13 15:52:34;;;;;;;1.33;1.16;;;;;;;19.35;51.27;99490.42;;;;-53
2021/05/13 15:55:34;;;;;;;1.28;1.12;;;;;;;19.36;51.23;99493.59;;;;-55
2021/05/13 15:58:34;;;;;;;1.53;1.10;;;;;;;19.37;51.19;99493.09;;;;-59
2021/05/13 16:01:34;;;;;;;1.31;1.05;;;;;;;19.37;51.21;99482.75;;;;-50
2021/05/13 16:04:34;;;;;;;1.17;1.07;;;;;;;19.39;51.15;99482.17;;;;-57
2021/05/13 16:07:34;;;;;;;1.61;1.07;;;;;;;19.38;51.21;99474.63;;;;-59
2021/05/13 16:10:38;;;;;;;3.99;1.09;;;;;;;19.39;51.15;99476.73;;;;-55
2021/05/13 16:13:39;;;;;;;1.95;1.12;;;;;;;19.39;51.24;99475.02;;;;-55
2021/05/13 16:16:34;;;;;;;1.59;1.12;;;;;;;19.40;51.24;99472.89;;;;-59
2021/05/13 16:19:34;;;;;;;1.20;1.10;;;;;;;19.39;51.22;99474.94;;;;-53
2021/05/13 16:22:34;;;;;;;2.37;1.22;;;;;;;19.41;51.20;99474.85;;;;-52
2021/05/13 16:25:34;;;;;;;1.09;1.08;;;;;;;19.41;51.21;99475.98;;;;-53
2021/05/13 16:28:34;;;;;;;1.47;1.16;;;;;;;19.41;51.21;99467.79;;;;-59
2021/05/13 16:31:35;;;;;;;1.56;1.12;;;;;;;19.41;51.18;99471.43;;;;-62
2021/05/13 16:34:34;;;;;;;2.51;1.11;;;;;;;19.41;51.20;99468.44;;;;-54
2021/05/13 16:37:34;;;;;;;1.35;0.99;;;;;;;19.41;51.11;99467.85;;;;-55
2021/05/13 16:40:34;;;;;;;1.81;1.00;;;;;;;19.42;51.12;99466.23;;;;-57
2021/05/13 16:43:34;;;;;;;1.21;1.10;;;;;;;19.42;51.09;99462.88;;;;-54
2021/05/13 16:46:34;;;;;;;2.00;1.10;;;;;;;19.42;51.22;99464.77;;;;-52
2021/05/13 16:49:34;;;;;;;1.77;1.20;;;;;;;19.43;51.02;99468.01;;;;-58
2021/05/13 16:52:34;;;;;;;1.55;1.09;;;;;;;19.42;51.20;99469.38;;;;-55
2021/05/13 16:55:34;;;;;;;3.82;1.21;;;;;;;19.41;51.05;99470.23;;;;-54